createdAt,value
2018-01-15T00:02:23.727Z,14.87
2018-01-15T00:04:51.300Z,15.63
2018-01-15T00:07:18.830Z,15.87
2018-01-15T00:09:46.353Z,14.80
2018-01-15T00:12:13.915Z,14.83
2018-01-15T00:14:41.487Z,13.67
2018-01-15T00:17:09.001Z,15.20
2018-01-15T00:19:36.515Z,16.30
2018-01-15T00:22:04.059Z,16.63
2018-01-15T00:24:31.571Z,15.97
2018-01-15T00:26:59.123Z,15.23
2018-01-15T00:29:26.634Z,15.33
2018-01-15T00:31:54.179Z,15.00
2018-01-15T00:34:21.711Z,15.60
2018-01-15T00:36:49.231Z,16.87
2018-01-15T00:39:16.849Z,16.00
2018-01-15T00:41:44.434Z,15.93
2018-01-15T00:44:11.972Z,14.30
2018-01-15T00:46:39.530Z,14.57
2018-01-15T00:49:07.051Z,15.07
2018-01-15T00:51:34.638Z,14.80
2018-01-15T00:54:02.159Z,15.10
2018-01-15T00:56:29.704Z,14.23
2018-01-15T00:58:57.210Z,15.60
2018-01-15T01:01:24.754Z,14.27
2018-01-15T01:03:52.268Z,13.27
2018-01-15T01:06:19.804Z,14.93
2018-01-15T01:08:47.342Z,14.87
2018-01-15T01:11:14.892Z,14.10
2018-01-15T01:13:42.448Z,15.23
2018-01-15T01:16:09.963Z,15.17
2018-01-15T01:18:37.462Z,13.77
2018-01-15T01:21:05.771Z,14.43
2018-01-15T01:23:33.277Z,14.50
2018-01-15T01:26:00.816Z,15.00
2018-01-15T01:28:28.381Z,14.77
2018-01-15T01:30:55.891Z,16.50
2018-01-15T01:33:23.441Z,15.43
2018-01-15T01:35:51.724Z,14.83
2018-01-15T01:38:19.279Z,15.17
2018-01-15T01:40:46.828Z,14.23
2018-01-15T01:43:14.336Z,15.53
2018-01-15T01:45:41.871Z,16.33
2018-01-15T01:48:09.382Z,14.67
2018-01-15T01:50:36.943Z,16.57
2018-01-15T01:53:04.455Z,15.77
2018-01-15T01:55:32.008Z,15.73
2018-01-15T01:57:59.523Z,16.00
2018-01-15T02:00:27.063Z,14.77
2018-01-15T02:02:54.575Z,15.60
2018-01-15T02:05:22.125Z,15.10
2018-01-15T02:07:49.677Z,15.13
2018-01-15T02:10:17.970Z,14.90
2018-01-15T02:12:46.252Z,14.07
2018-01-15T02:15:13.795Z,14.87
2018-01-15T02:17:41.352Z,15.53
2018-01-15T02:20:09.657Z,16.13
2018-01-15T02:22:37.176Z,15.23
2018-01-15T02:25:04.730Z,15.43
2018-01-15T02:27:32.255Z,15.27
2018-01-15T02:29:59.800Z,16.13
2018-01-15T02:32:27.351Z,14.53
2018-01-15T02:34:54.865Z,14.17
2018-01-15T02:37:22.391Z,14.20
2018-01-15T02:39:50.012Z,14.00
2018-01-15T02:42:18.328Z,15.23
2018-01-15T02:44:45.892Z,17.03
2018-01-15T02:47:13.414Z,13.83
2018-01-15T02:49:40.951Z,14.90
2018-01-15T02:52:08.463Z,14.77
2018-01-15T02:54:36.020Z,14.00
2018-01-15T02:57:03.548Z,13.87
2018-01-15T02:59:31.103Z,14.80
2018-01-15T03:01:58.621Z,15.03
2018-01-15T03:04:26.166Z,14.87
2018-01-15T03:06:53.719Z,15.87
2018-01-15T03:09:21.249Z,14.40
2018-01-15T03:11:48.795Z,15.80
2018-01-15T03:14:17.104Z,14.17
2018-01-15T03:16:44.953Z,16.17
2018-01-15T03:19:12.516Z,15.17
2018-01-15T03:21:40.070Z,16.23
2018-01-15T03:24:07.639Z,15.47
2018-01-15T03:26:35.159Z,14.60
2018-01-15T03:31:44.576Z,15.37
2018-01-15T03:34:12.117Z,15.10
2018-01-15T03:36:39.632Z,14.77
2018-01-15T03:39:07.183Z,15.47
2018-01-15T03:41:34.741Z,15.13
2018-01-15T03:44:02.296Z,14.03
2018-01-15T03:46:29.859Z,15.70
2018-01-15T03:48:57.393Z,15.33
2018-01-15T03:51:24.944Z,15.83
2018-01-15T03:53:52.493Z,15.53
2018-01-15T03:56:20.013Z,15.07
2018-01-15T03:58:47.526Z,15.60
2018-01-15T04:01:15.060Z,15.43
2018-01-15T04:03:42.579Z,15.97
2018-01-15T04:06:10.134Z,15.40
2018-01-15T04:08:37.653Z,15.57
2018-01-15T04:11:05.196Z,14.93
2018-01-15T04:13:32.724Z,15.77
2018-01-15T04:16:00.290Z,17.03
2018-01-15T04:18:27.816Z,14.73
2018-01-15T04:20:55.340Z,16.77
2018-01-15T04:23:22.889Z,15.47
2018-01-15T04:25:50.408Z,15.17
2018-01-15T04:28:17.966Z,15.27
2018-01-15T04:30:45.484Z,16.10
2018-01-15T04:33:13.025Z,16.13
2018-01-15T04:35:40.539Z,17.07
2018-01-15T04:38:08.089Z,16.10
2018-01-15T04:40:35.635Z,15.73
2018-01-15T04:43:03.138Z,15.57
2018-01-15T04:45:31.443Z,14.90
2018-01-15T04:47:58.960Z,14.63
2018-01-15T04:50:26.528Z,16.00
2018-01-15T04:52:54.058Z,16.77
2018-01-15T04:55:21.579Z,17.37
2018-01-15T04:57:49.137Z,15.50
2018-01-15T05:00:16.709Z,16.60
2018-01-15T05:02:44.251Z,18.97
2018-01-15T05:05:11.879Z,15.10
2018-01-15T05:07:39.398Z,16.17
2018-01-15T05:10:06.941Z,16.93
2018-01-15T05:12:34.483Z,17.63
2018-01-15T05:15:02.799Z,16.47
2018-01-15T05:17:30.567Z,18.33
2018-01-15T05:19:58.088Z,16.80
2018-01-15T05:22:26.391Z,16.93
2018-01-15T05:24:53.922Z,15.73
2018-01-15T05:27:22.287Z,16.40
2018-01-15T05:29:50.603Z,16.17
2018-01-15T05:32:18.146Z,16.50
2018-01-15T05:34:45.691Z,16.47
2018-01-15T05:37:13.248Z,16.67
2018-01-15T05:39:40.762Z,18.73
2018-01-15T05:42:08.322Z,18.33
2018-01-15T05:44:35.823Z,17.07
2018-01-15T05:47:03.343Z,17.87
2018-01-15T05:49:30.896Z,19.13
2018-01-15T05:51:58.402Z,19.70
2018-01-15T05:54:26.731Z,20.17
2018-01-15T05:56:54.250Z,20.73
2018-01-15T05:59:21.836Z,18.43
2018-01-15T06:01:49.350Z,17.73
2018-01-15T06:04:16.862Z,18.50
2018-01-15T06:06:44.412Z,19.20
2018-01-15T06:09:11.927Z,17.87
2018-01-15T06:11:39.590Z,18.17
2018-01-15T06:14:07.868Z,19.73
2018-01-15T06:16:35.471Z,17.73
2018-01-15T06:19:03.024Z,17.17
2018-01-15T06:21:30.532Z,18.77
2018-01-15T06:23:58.067Z,18.97
2018-01-15T06:26:25.603Z,19.97
2018-01-15T06:28:53.157Z,19.47
2018-01-15T06:31:20.679Z,19.37
2018-01-15T06:33:48.228Z,19.20
2018-01-15T06:36:15.749Z,21.43
2018-01-15T06:38:43.294Z,20.10
2018-01-15T06:41:10.844Z,19.77
2018-01-15T06:43:38.399Z,17.97
2018-01-15T06:46:05.994Z,19.60
2018-01-15T06:48:33.516Z,19.23
2018-01-15T06:51:01.061Z,20.47
2018-01-15T06:53:29.343Z,19.80
2018-01-15T06:55:56.895Z,18.57
2018-01-15T06:58:25.224Z,19.37
2018-01-15T07:00:52.792Z,20.87
2018-01-15T07:03:20.307Z,19.57
2018-01-15T07:05:48.631Z,19.27
2018-01-15T07:08:16.202Z,19.13
2018-01-15T07:10:43.740Z,18.70
2018-01-15T07:13:11.292Z,21.67
2018-01-15T07:15:38.866Z,18.60
2018-01-15T07:18:06.408Z,20.03
2018-01-15T07:20:33.932Z,19.80
2018-01-15T07:23:02.227Z,19.73
2018-01-15T07:25:29.817Z,19.97
2018-01-15T07:27:58.347Z,20.23
2018-01-15T07:30:26.307Z,21.83
2018-01-15T07:32:53.827Z,21.23
2018-01-15T07:35:21.388Z,19.47
2018-01-15T07:37:48.950Z,20.27
2018-01-15T07:40:16.473Z,20.57
2018-01-15T07:42:44.101Z,21.03
2018-01-15T07:45:11.686Z,20.00
2018-01-15T07:47:39.973Z,22.40
2018-01-15T07:50:07.519Z,23.13
2018-01-15T07:52:35.218Z,22.67
2018-01-15T07:55:02.887Z,21.43
2018-01-15T07:57:30.452Z,21.87
2018-01-15T07:59:58.024Z,20.87
2018-01-15T08:02:25.538Z,21.57
2018-01-15T08:04:53.192Z,20.43
2018-01-15T08:07:20.727Z,21.80
2018-01-15T08:09:48.298Z,22.27
2018-01-15T08:12:16.719Z,22.00
2018-01-15T08:14:44.328Z,23.07
2018-01-15T08:17:11.888Z,23.07
2018-01-15T08:19:39.514Z,24.10
2018-01-15T08:22:07.038Z,24.07
2018-01-15T08:24:34.599Z,23.23
2018-01-15T08:27:02.143Z,22.67
2018-01-15T08:29:29.716Z,23.70
2018-01-15T08:31:57.284Z,21.90
2018-01-15T08:34:24.861Z,22.00
2018-01-15T08:36:52.389Z,23.67
2018-01-15T08:39:19.935Z,23.10
2018-01-15T08:41:48.280Z,24.30
2018-01-15T08:44:16.004Z,24.03
2018-01-15T08:46:43.619Z,23.43
2018-01-15T08:49:11.148Z,21.97
2018-01-15T08:51:39.094Z,21.67
2018-01-15T08:54:06.833Z,21.83
2018-01-15T08:56:35.172Z,21.13
2018-01-15T08:59:02.715Z,23.97
2018-01-15T09:01:30.281Z,22.93
2018-01-15T09:03:57.833Z,21.87
2018-01-15T09:06:25.402Z,21.30
2018-01-15T09:08:52.959Z,21.87
2018-01-15T09:11:20.519Z,22.27
2018-01-15T09:13:48.232Z,21.83
2018-01-15T09:16:15.761Z,24.80
2018-01-15T09:18:43.550Z,22.60
2018-01-15T09:21:11.870Z,23.33
2018-01-15T09:23:39.419Z,23.80
2018-01-15T09:26:07.002Z,22.87
2018-01-15T09:28:34.549Z,22.67
2018-01-15T09:31:02.083Z,23.63
2018-01-15T09:33:29.682Z,24.00
2018-01-15T09:35:57.311Z,24.03
2018-01-15T09:38:24.874Z,23.80
2018-01-15T09:40:52.410Z,24.20
2018-01-15T09:43:20.042Z,24.83
2018-01-15T09:45:47.583Z,23.73
2018-01-15T09:48:15.231Z,23.47
2018-01-15T09:50:42.772Z,23.30
2018-01-15T09:53:11.089Z,22.70
2018-01-15T09:55:38.692Z,23.43
2018-01-15T09:58:06.265Z,23.07
2018-01-15T10:00:33.798Z,25.43
2018-01-15T10:03:01.390Z,23.67
2018-01-15T10:05:28.956Z,23.00
2018-01-15T10:07:56.463Z,23.77
2018-01-15T10:10:24.012Z,24.90
2018-01-15T10:12:51.553Z,24.97
2018-01-15T10:15:19.320Z,24.43
2018-01-15T10:17:46.884Z,23.67
2018-01-15T10:20:15.170Z,22.10
2018-01-15T10:22:43.294Z,23.53
2018-01-15T10:25:10.945Z,21.83
2018-01-15T10:27:38.499Z,20.57
2018-01-15T10:30:06.792Z,27.47
2018-01-15T10:32:35.036Z,31.67
2018-01-15T10:35:02.579Z,29.57
2018-01-15T10:37:30.193Z,18.70
2018-01-15T10:39:57.799Z,16.97
2018-01-15T10:42:25.337Z,16.60
2018-01-15T10:44:53.192Z,17.30
2018-01-15T10:47:20.769Z,18.43
2018-01-15T10:49:48.307Z,18.33
2018-01-15T10:52:15.864Z,18.90
2018-01-15T10:54:43.496Z,19.20
2018-01-15T10:57:11.052Z,19.87
2018-01-15T10:59:38.597Z,18.63
2018-01-15T11:02:06.156Z,19.77
2018-01-15T11:04:33.687Z,19.70
2018-01-15T11:07:01.198Z,18.73
2018-01-15T11:09:28.802Z,19.43
2018-01-15T11:11:56.338Z,17.73
2018-01-15T11:14:24.106Z,18.50
2018-01-15T11:16:51.671Z,17.97
2018-01-15T11:19:19.228Z,16.73
2018-01-15T11:21:46.806Z,15.40
2018-01-15T11:24:14.412Z,17.00
2018-01-15T11:26:41.998Z,15.93
2018-01-15T11:29:09.527Z,16.07
2018-01-15T11:31:37.098Z,17.13
2018-01-15T11:34:04.642Z,16.43
2018-01-15T11:36:32.217Z,16.13
2018-01-15T11:39:00.527Z,16.20
2018-01-15T11:41:28.152Z,16.47
2018-01-15T11:43:55.676Z,15.10
2018-01-15T11:46:23.225Z,14.70
2018-01-15T11:48:50.803Z,14.83
2018-01-15T11:51:18.327Z,14.57
2018-01-15T11:53:46.678Z,14.43
2018-01-15T11:56:15.156Z,15.03
2018-01-15T11:58:42.756Z,13.83
2018-01-15T12:01:10.332Z,14.07
2018-01-15T12:03:37.890Z,14.57
2018-01-15T12:06:05.448Z,16.43
2018-01-15T12:08:32.974Z,14.73
2018-01-15T12:11:00.563Z,14.57
2018-01-15T12:13:28.151Z,15.57
2018-01-15T12:15:55.726Z,14.33
2018-01-15T12:18:23.372Z,15.03
2018-01-15T12:20:50.997Z,15.10
2018-01-15T12:23:18.557Z,16.63
2018-01-15T12:25:46.271Z,15.07
2018-01-15T12:28:13.809Z,16.77
2018-01-15T12:30:41.352Z,14.50
2018-01-15T12:33:08.929Z,13.93
2018-01-15T12:35:36.519Z,18.83
2018-01-15T12:38:04.182Z,15.83
2018-01-15T12:40:32.472Z,17.70
2018-01-15T12:43:00.030Z,15.70
2018-01-15T12:45:28.379Z,17.07
2018-01-15T12:47:55.942Z,17.23
2018-01-15T12:50:23.499Z,16.53
2018-01-15T12:52:51.045Z,16.40
2018-01-15T12:55:18.652Z,15.30
2018-01-15T12:57:46.178Z,14.37
2018-01-15T13:00:13.837Z,15.87
2018-01-15T13:02:41.686Z,15.03
2018-01-15T13:05:10.250Z,15.43
2018-01-15T13:07:49.477Z,16.10
2018-01-15T13:10:17.042Z,15.90
2018-01-15T13:12:44.615Z,17.00
2018-01-15T13:15:12.240Z,15.90
2018-01-15T13:17:39.795Z,15.67
2018-01-15T13:20:08.157Z,14.77
2018-01-15T13:22:36.443Z,15.30
2018-01-15T13:25:04.001Z,16.77
2018-01-15T13:27:32.286Z,14.83
2018-01-15T13:29:59.816Z,13.73
2018-01-15T13:32:27.380Z,14.13
2018-01-15T13:34:54.904Z,14.37
2018-01-15T13:37:22.467Z,14.13
2018-01-15T13:39:49.988Z,13.87
2018-01-15T13:42:18.339Z,15.00
2018-01-15T13:44:45.861Z,13.13
2018-01-15T13:47:13.505Z,14.00
2018-01-15T13:49:41.070Z,14.10
2018-01-15T13:52:08.620Z,14.20
2018-01-15T13:54:36.171Z,12.93
2018-01-15T13:57:03.695Z,13.63
2018-01-15T13:59:31.560Z,13.97
2018-01-15T14:01:59.140Z,12.80
2018-01-15T14:04:26.687Z,13.13
2018-01-15T14:06:55.080Z,12.53
2018-01-15T14:09:23.407Z,13.60
2018-01-15T14:11:51.007Z,12.63
2018-01-15T14:14:18.565Z,13.40
2018-01-15T14:16:46.099Z,13.50
2018-01-15T14:19:13.673Z,15.30
2018-01-15T14:21:42.051Z,14.57
2018-01-15T14:24:09.613Z,13.60
2018-01-15T14:26:37.139Z,14.80
2018-01-15T14:29:04.683Z,11.47
2018-01-15T14:31:32.229Z,12.80
2018-01-15T14:33:59.815Z,11.93
2018-01-15T14:36:27.568Z,12.50
2018-01-15T14:38:55.079Z,12.97
2018-01-15T14:41:23.469Z,12.00
2018-01-15T14:43:51.799Z,12.03
2018-01-15T14:46:19.325Z,12.33
2018-01-15T14:48:46.872Z,12.60
2018-01-15T14:51:15.640Z,12.10
2018-01-15T14:53:43.175Z,12.40
2018-01-15T14:56:10.933Z,11.30
2018-01-15T14:58:38.483Z,11.00
2018-01-15T15:01:06.070Z,11.63
2018-01-15T15:03:33.617Z,10.57
2018-01-15T15:06:01.352Z,11.67
2018-01-15T15:08:28.904Z,11.47
2018-01-15T15:10:56.494Z,10.97
2018-01-15T15:13:25.160Z,11.23
2018-01-15T15:15:52.753Z,10.83
2018-01-15T15:18:20.297Z,11.07
2018-01-15T15:20:47.812Z,11.50
2018-01-15T15:23:15.369Z,12.13
2018-01-15T15:25:42.963Z,11.63
2018-01-15T15:28:10.887Z,10.93
2018-01-15T15:30:38.474Z,10.33
2018-01-15T15:33:06.048Z,11.60
2018-01-15T15:35:33.565Z,11.93
2018-01-15T15:38:01.109Z,11.27
2018-01-15T15:40:28.624Z,12.60
2018-01-15T15:42:56.214Z,11.23
2018-01-15T15:45:23.745Z,11.63
2018-01-15T15:47:51.589Z,11.63
2018-01-15T15:50:19.241Z,11.77
2018-01-15T15:52:46.790Z,10.57
2018-01-15T15:55:14.343Z,10.57
2018-01-15T15:57:41.917Z,11.10
2018-01-15T16:00:09.475Z,12.50
2018-01-15T16:02:37.763Z,11.40
2018-01-15T16:05:05.333Z,11.67
2018-01-15T16:07:33.032Z,11.37
2018-01-15T16:10:00.594Z,11.23
2018-01-15T16:12:28.106Z,10.50
2018-01-15T16:14:55.632Z,12.60
2018-01-15T16:17:23.204Z,10.87
2018-01-15T16:19:50.789Z,11.73
2018-01-15T16:22:30.165Z,11.23
2018-01-15T16:24:57.681Z,10.47
2018-01-15T16:27:25.246Z,11.20
2018-01-15T16:29:52.778Z,10.87
2018-01-15T16:32:20.367Z,12.77
2018-01-15T16:34:48.682Z,11.27
2018-01-15T16:37:16.245Z,11.50
2018-01-15T16:39:43.770Z,10.83
2018-01-15T16:42:11.322Z,11.10
2018-01-15T16:44:39.629Z,11.40
2018-01-15T16:47:07.188Z,12.23
2018-01-15T16:49:35.130Z,11.70
2018-01-15T16:52:02.663Z,10.40
2018-01-15T16:54:31.008Z,11.80
2018-01-15T16:56:58.553Z,11.23
2018-01-15T16:59:26.076Z,11.83
2018-01-15T17:01:53.635Z,12.90
2018-01-15T17:04:21.174Z,11.47
2018-01-15T17:06:48.855Z,12.27
2018-01-15T17:09:16.432Z,11.63
2018-01-15T17:11:43.989Z,10.37
2018-01-15T17:14:11.523Z,11.13
2018-01-15T17:16:39.201Z,12.50
2018-01-15T17:19:06.757Z,11.50
2018-01-15T17:21:34.328Z,10.90
2018-01-15T17:24:01.903Z,11.50
2018-01-15T17:26:29.439Z,10.73
2018-01-15T17:28:57.120Z,11.50
2018-01-15T17:31:24.706Z,12.93
2018-01-15T17:33:52.289Z,12.00
2018-01-15T17:36:19.862Z,11.47
2018-01-15T17:38:47.383Z,10.90
2018-01-15T17:41:14.940Z,10.73
2018-01-15T17:43:42.452Z,10.97
2018-01-15T17:46:10.102Z,12.33
2018-01-15T17:48:37.705Z,12.23
2018-01-15T17:51:05.267Z,12.23
2018-01-15T17:53:32.794Z,12.53
2018-01-15T17:56:00.363Z,11.03
2018-01-15T17:58:27.926Z,11.90
2018-01-15T18:00:55.469Z,13.93
2018-01-15T18:03:23.034Z,13.67
2018-01-15T18:05:50.546Z,10.97
2018-01-15T18:08:18.109Z,11.60
2018-01-15T18:10:45.912Z,11.83
2018-01-15T18:13:14.247Z,12.70
2018-01-15T18:15:41.811Z,13.37
2018-01-15T18:18:09.339Z,12.17
2018-01-15T18:20:36.910Z,12.37
2018-01-15T18:23:04.424Z,10.77
2018-01-15T18:25:32.016Z,11.40
2018-01-15T18:27:59.570Z,11.40
2018-01-15T18:30:27.172Z,12.30
2018-01-15T18:32:54.681Z,11.20
2018-01-15T18:35:22.245Z,12.83
2018-01-15T18:37:49.759Z,14.70
2018-01-15T18:40:17.304Z,14.07
2018-01-15T18:42:44.827Z,12.93
2018-01-15T18:45:12.395Z,14.43
2018-01-15T18:47:39.941Z,15.00
2018-01-15T18:50:07.475Z,13.67
2018-01-15T18:52:35.031Z,15.43
2018-01-15T18:55:02.552Z,15.67
2018-01-15T18:57:30.118Z,14.17
2018-01-15T18:59:57.679Z,16.03
2018-01-15T19:02:25.238Z,13.93
2018-01-15T19:04:52.783Z,13.67
2018-01-15T19:07:20.365Z,12.97
2018-01-15T19:09:47.927Z,18.37
2018-01-15T19:12:15.457Z,14.63
2018-01-15T19:14:43.070Z,13.40
2018-01-15T19:17:10.619Z,12.23
2018-01-15T19:19:38.188Z,11.23
2018-01-15T19:22:05.781Z,10.87
2018-01-15T19:24:33.344Z,10.20
2018-01-15T19:27:00.982Z,10.30
2018-01-15T19:29:28.553Z,10.70
2018-01-15T19:31:56.860Z,10.83
2018-01-15T19:34:28.100Z,10.07
2018-01-15T19:36:57.474Z,9.47
2018-01-15T19:39:25.027Z,10.47
2018-01-15T19:41:55.260Z,8.83
2018-01-15T19:44:28.398Z,10.30
2018-01-15T19:47:01.696Z,11.00
2018-01-15T19:49:34.903Z,10.23
2018-01-15T19:52:08.267Z,8.90
2018-01-15T19:54:41.541Z,10.00
2018-01-15T19:57:14.800Z,8.30
2018-01-15T19:59:47.888Z,8.33
2018-01-15T20:02:21.215Z,7.90
2018-01-15T20:04:54.341Z,7.00
2018-01-15T20:07:27.567Z,7.10
2018-01-15T20:10:00.782Z,7.27
2018-01-15T20:12:28.351Z,6.77
2018-01-15T20:14:55.879Z,5.63
2018-01-15T20:17:23.477Z,7.03
2018-01-15T20:19:51.066Z,6.03
2018-01-15T20:22:18.573Z,6.83
2018-01-15T20:24:46.905Z,6.40
2018-01-15T20:27:14.467Z,6.33
2018-01-15T20:29:42.056Z,6.40
2018-01-15T20:32:09.595Z,6.33
2018-01-15T20:34:37.115Z,5.93
2018-01-15T20:37:04.682Z,6.60
2018-01-15T20:39:32.195Z,6.10
2018-01-15T20:41:59.771Z,7.30
2018-01-15T20:44:28.172Z,6.70
2018-01-15T20:46:55.731Z,6.73
2018-01-15T20:49:23.333Z,7.37
2018-01-15T20:51:50.910Z,7.03
2018-01-15T20:54:18.482Z,8.90
2018-01-15T20:56:46.136Z,8.53
2018-01-15T20:59:13.736Z,7.80
2018-01-15T21:01:41.299Z,8.17
2018-01-15T21:04:08.866Z,8.43
2018-01-15T21:06:36.420Z,7.93
2018-01-15T21:09:04.008Z,7.70
2018-01-15T21:11:31.507Z,6.93
2018-01-15T21:13:59.111Z,7.70
2018-01-15T21:16:26.665Z,7.10
2018-01-15T21:18:54.199Z,7.63
2018-01-15T21:21:21.753Z,6.20
2018-01-15T21:23:49.467Z,6.90
2018-01-15T21:26:17.036Z,6.07
2018-01-15T21:28:44.632Z,7.07
2018-01-15T21:31:12.196Z,6.60
2018-01-15T21:33:39.773Z,6.00
2018-01-15T21:36:07.336Z,6.07
2018-01-15T21:38:34.882Z,5.40
2018-01-15T21:41:02.438Z,5.87
2018-01-15T21:43:30.718Z,4.93
2018-01-15T21:45:58.236Z,5.00
2018-01-15T21:48:25.775Z,5.27
2018-01-15T21:50:53.365Z,4.57
2018-01-15T21:53:20.942Z,5.40
2018-01-15T21:55:49.250Z,4.50
2018-01-15T21:58:16.772Z,3.73
2018-01-15T22:00:44.327Z,4.60
2018-01-15T22:03:11.884Z,4.57
2018-01-15T22:05:39.432Z,4.20
2018-01-15T22:08:06.963Z,4.00
2018-01-15T22:10:34.523Z,3.87
2018-01-15T22:13:02.842Z,3.83
2018-01-15T22:15:30.474Z,4.47
2018-01-15T22:17:58.050Z,3.60
2018-01-15T22:20:25.636Z,4.03
2018-01-15T22:22:53.176Z,3.53
2018-01-15T22:25:20.686Z,3.33
2018-01-15T22:27:48.231Z,3.10
2018-01-15T22:30:15.773Z,3.00
2018-01-15T22:32:43.295Z,3.27
2018-01-15T22:35:10.848Z,2.93
2018-01-15T22:37:38.359Z,2.70
2018-01-15T22:40:05.878Z,3.23
2018-01-15T22:42:33.471Z,3.10
2018-01-15T22:45:01.744Z,3.00
2018-01-15T22:47:29.289Z,3.13
2018-01-15T22:49:56.816Z,2.70
2018-01-15T22:52:24.387Z,3.30
2018-01-15T22:54:51.937Z,2.67
2018-01-15T22:57:19.507Z,2.80
2018-01-15T22:59:47.056Z,3.00
2018-01-15T23:02:14.566Z,2.37
2018-01-15T23:04:42.188Z,3.10
2018-01-15T23:07:09.731Z,3.20
2018-01-15T23:09:37.245Z,2.50
2018-01-15T23:12:04.783Z,2.53
2018-01-15T23:14:32.316Z,2.77
2018-01-15T23:16:59.867Z,2.87
2018-01-15T23:19:27.391Z,2.60
2018-01-15T23:21:54.958Z,2.83
2018-01-15T23:24:22.503Z,3.20
2018-01-15T23:26:50.074Z,3.30
2018-01-15T23:29:17.600Z,2.87
2018-01-15T23:31:45.134Z,3.27
2018-01-15T23:34:12.877Z,2.93
2018-01-15T23:36:40.406Z,2.70
2018-01-15T23:39:07.985Z,2.57
2018-01-15T23:41:35.513Z,2.40
2018-01-15T23:44:03.035Z,2.60
2018-01-15T23:46:30.595Z,2.07
2018-01-15T23:48:58.116Z,2.30
2018-01-15T23:51:25.667Z,2.50
2018-01-15T23:53:53.953Z,2.40
2018-01-15T23:56:21.487Z,2.30
2018-01-15T23:58:50.213Z,2.37
